| Date | Time | Temp. (oF) | Dew Point (oF) | Rel. Hum. (%) | Press. (in.) | Wind Dir. | Wind Speed (mph) | Hourly Rainfall (in.) |
|
|---|---|---|---|---|---|---|---|---|---|
| 1 | 07/29 | 00:00 | 76 | 71 | 87 | 29.88 | SW | 0 | 0.00 |
| 2 | 07/28 | 23:00 | 77 | 71 | 83 | 29.89 | SSW | 8 | 0.00 |
| 3 | 07/28 | 22:00 | 78 | 70 | 79 | 29.88 | SSW | 3 | 0.00 |
| 4 | 07/28 | 21:00 | 78 | 69 | 76 | 29.87 | SSW | 3 | 0.00 |
| 5 | 07/28 | 20:00 | 82 | 70 | 69 | 29.85 | S | 0 | 0.00 |
| 6 | 07/28 | 19:00 | 84 | 70 | 65 | 29.85 | SW | 3 | 0.00 |
| 7 | 07/28 | 18:00 | 85 | 71 | 64 | 29.84 | S | 8 | 0.00 |
| 8 | 07/28 | 17:00 | 84 | 74 | 74 | 29.86 | WSW | 4 | 0.01 |
| 9 | 07/28 | 16:00 | 84 | 72 | 68 | 29.88 | SSW | 7 | 0.00 |
| 10 | 07/28 | 15:00 | 86 | 73 | 67 | 29.89 | SSW | 2 | 0.00 |
| 11 | 07/28 | 14:00 | 86 | 72 | 64 | 29.90 | SSW | 1 | 0.00 |
| 12 | 07/28 | 13:00 | 83 | 73 | 74 | 29.91 | SSE | 0 | 0.00 |
| 13 | 07/28 | 12:00 | 83 | 73 | 74 | 29.93 | SSW | 0 | 0.00 |
| 14 | miss | miss | miss | miss | miss | miss | miss | miss | |
| 15 | 07/28 | 11:51 | 83 | 72 | 72 | 29.93 | S | 0 | 0.00 |
| 16 | miss | miss | miss | miss | miss | miss | miss | miss | |
| 17 | 07/28 | 11:49 | 83 | 73 | 74 | 29.93 | SW | 0 | 0.00 |
| 18 | miss | miss | miss | miss | miss | miss | miss | miss | |
| 19 | 07/28 | 11:47 | 83 | 73 | 74 | 29.93 | SW | 0 | 0.00 |
| 20 | miss | miss | miss | miss | miss | miss | miss | miss | |
| 21 | 07/28 | 11:45 | 83 | 73 | 74 | 29.93 | S | 0 | 0.00 |
| 22 | miss | miss | miss | miss | miss | miss | miss | miss | |
| 23 | 07/28 | 11:43 | 83 | 74 | 77 | 29.94 | SW | 0 | 0.00 |
| 24 | miss | miss | miss | miss | miss | miss | miss | miss | |
| 25 | 07/28 | 11:41 | 82 | 74 | 78 | 29.94 | SW | 0 | 0.00 |
| 26 | miss | miss | miss | miss | miss | miss | miss | miss | |
| 27 | 07/28 | 11:41 | 82 | 74 | 78 | 29.94 | SW | 0 | 0.00 |
| 28 | miss | miss | miss | miss | miss | miss | miss | miss | |
| 29 | 07/28 | 11:41 | 82 | 74 | 78 | 29.94 | SW | 0 | 0.00 |
| 30 | miss | miss | miss | miss | miss | miss | miss | miss | |
| 31 | 07/28 | 11:41 | 82 | 74 | 78 | 29.94 | SW | 0 | 0.00 |
| 32 | miss | miss | miss | miss | miss | miss | miss | miss | |
| 33 | 07/28 | 11:41 | 82 | 74 | 78 | 29.94 | SW | 0 | 0.00 |
| 34 | miss | miss | miss | miss | miss | miss | miss | miss | |
| 35 | 07/28 | 11:41 | 82 | 74 | 78 | 29.94 | SW | 0 | 0.00 |
| 36 | miss | miss | miss | miss | miss | miss | miss | miss | |
| 37 | 07/28 | 11:41 | 82 | 74 | 78 | 29.94 | SW | 0 | 0.00 |
| 38 | 07/28 | 11:00 | 81 | 73 | 77 | 29.94 | S | 0 | 0.00 |
| 39 | 07/28 | 10:00 | 80 | 73 | 81 | 29.95 | S | 0 | 0.00 |
| 40 | 07/28 | 09:00 | 77 | 72 | 86 | 29.97 | SW | 0 | 0.00 |
| 41 | 07/28 | 08:00 | 70 | 69 | 98 | 29.96 | SSW | 0 | 0.00 |
| 42 | 07/28 | 07:00 | 67 | 66 | 98 | 29.96 | SSW | 0 | 0.00 |
| 43 | 07/28 | 06:00 | 67 | 65 | 96 | 29.95 | NE | 0 | 0.00 |
| 44 | 07/28 | 05:00 | 68 | 66 | 95 | 29.94 | NE | 0 | 0.00 |
| 45 | 07/28 | 04:00 | 69 | 66 | 91 | 29.95 | WSW | 0 | 0.00 |
| 46 | 07/28 | 03:00 | 71 | 67 | 88 | 29.95 | WSW | 0 | 0.00 |
| 47 | 07/28 | 02:00 | 72 | 68 | 88 | 29.95 | SW | 0 | 0.00 |
| 48 | 07/28 | 01:00 | 73 | 68 | 86 | 29.95 | SE | 0 | 0.00 |
| 49 | 07/28 | 00:00 | 74 | 68 | 83 | 29.96 | ESE | 0 | -0.01 |
| 50 | 07/27 | 23:00 | 75 | 67 | 77 | 29.95 | WSW | 0 | 0.00 |
| 51 | 07/27 | 22:00 | 77 | 68 | 76 | 29.95 | SW | 4 | 0.00 |
| 52 | 07/27 | 21:00 | 79 | 68 | 71 | 29.93 | SW | 0 | 0.00 |
| 53 | 07/27 | 20:00 | 81 | 68 | 65 | 29.91 | SSW | 0 | 0.00 |
| 54 | 07/27 | 19:00 | 84 | 68 | 59 | 29.89 | SW | 5 | 0.00 |
| 55 | 07/27 | 18:00 | 86 | 67 | 55 | 29.87 | SW | 3 | 0.00 |
| 56 | 07/27 | 17:00 | 86 | 66 | 53 | 29.88 | SW | 4 | 0.00 |
| 57 | 07/27 | 16:00 | 85 | 65 | 53 | 29.90 | SW | 5 | 0.00 |
| 58 | 07/27 | 15:00 | 84 | 66 | 56 | 29.93 | SW | 6 | 0.00 |
| 59 | 07/27 | 14:00 | 86 | 69 | 58 | 29.94 | W | 7 | 0.00 |
| 60 | 07/27 | 13:00 | 85 | 69 | 60 | 29.94 | SW | 3 | 0.00 |
| 61 | 07/27 | 12:00 | 82 | 69 | 66 | 29.95 | SW | 3 | 0.00 |
| 62 | 07/27 | 11:00 | 80 | 72 | 79 | 29.95 | WSW | 0 | 0.00 |
| 63 | 07/27 | 10:00 | 78 | 73 | 87 | 29.95 | WSW | 0 | 0.00 |
| 64 | 07/27 | 09:00 | 73 | 71 | 96 | 29.94 | SSW | 0 | 0.00 |
| 65 | 07/27 | 08:00 | 68 | 68 | 100 | 29.95 | S | 0 | 0.00 |
| 66 | 07/27 | 07:00 | 65 | 64 | 100 | 29.94 | N | 0 | 0.00 |
| 67 | 07/27 | 06:00 | 65 | 64 | 100 | 29.93 | SW | 0 | 0.00 |
| 68 | 07/27 | 05:00 | 65 | 64 | 100 | 29.94 | SW | 0 | 0.00 |
| 69 | 07/27 | 04:00 | 66 | 65 | 99 | 29.92 | SW | 0 | 0.00 |
| 70 | 07/27 | 03:00 | 66 | 65 | 99 | 29.91 | SW | 0 | 0.00 |
| 71 | 07/27 | 02:00 | 67 | 66 | 98 | 29.91 | SW | 0 | 0.00 |
| 72 | 07/27 | 01:00 | 67 | 66 | 98 | 29.91 | S | 0 | 0.00 |
| 73 | 07/27 | 00:00 | 69 | 68 | 97 | 29.89 | S | 0 | 0.00 |